Time;durP1;ratioP1;P1;durP2;ratioP2;P2;SDS_P1;SDS_P2;PMS_P1;PMS_P2;Temp;Humidity;BMP_temperature;BMP_pressure;BME280_temperature;BME280_humidity;BME280_pressure;Samples;Min_cycle;Max_cycle;Signal;HPM_P1;HPM_P2
2023/01/21 00:02:03;;;;;;;49.65;19.05;;;;;;;0.11;100.00;102659.19;2618250;36;20070;-60
2023/01/21 00:04:33;;;;;;;52.00;20.08;;;;;;;0.12;100.00;102660.09;2618719;31;20068;-60
2023/01/21 00:07:01;;;;;;;46.03;18.98;;;;;;;0.05;100.00;102675.19;2618290;36;20057;-59
2023/01/21 00:09:32;;;;;;;57.13;21.90;;;;;;;0.01;100.00;102676.13;2619680;36;20049;-59
2023/01/21 00:12:02;;;;;;;50.88;20.10;;;;;;;0.07;100.00;102680.47;2619954;36;20287;-59
2023/01/21 00:14:30;;;;;;;47.25;19.52;;;;;;;0.19;100.00;102687.34;2618990;36;20060;-59
2023/01/21 00:16:58;;;;;;;53.88;21.17;;;;;;;0.13;100.00;102694.50;2618613;31;20041;-59
2023/01/21 00:19:27;;;;;;;56.63;22.30;;;;;;;0.09;100.00;102686.59;2618079;36;20038;-59
2023/01/21 00:21:56;;;;;;;49.05;22.08;;;;;;;0.01;100.00;102692.00;2616505;36;20118;-59
2023/01/21 00:24:24;;;;;;;51.03;21.40;;;;;;;-0.01;100.00;102699.13;2618433;31;20046;-58
2023/01/21 00:26:55;;;;;;;45.00;19.55;;;;;;;0.03;100.00;102702.56;2616541;36;20057;-60
2023/01/21 00:29:25;;;;;;;48.65;19.38;;;;;;;0.05;100.00;102698.16;2613700;36;20034;-59
2023/01/21 00:31:53;;;;;;;45.15;18.88;;;;;;;0.06;100.00;102710.47;2613403;36;20042;-59
2023/01/21 00:34:21;;;;;;;53.92;18.95;;;;;;;0.16;100.00;102712.09;2615287;36;20084;-59
2023/01/21 00:36:50;;;;;;;46.53;20.17;;;;;;;0.04;100.00;102721.09;2614905;36;20072;-59
2023/01/21 00:39:18;;;;;;;44.30;18.38;;;;;;;0.11;100.00;102727.19;2617037;36;20411;-59
2023/01/21 00:41:46;;;;;;;49.50;18.98;;;;;;;0.09;100.00;102734.25;2615569;36;20052;-60
2023/01/21 00:44:18;;;;;;;56.17;20.85;;;;;;;0.01;100.00;102730.84;2616370;36;20057;-60
2023/01/21 00:46:46;;;;;;;48.40;18.80;;;;;;;0.05;100.00;102727.28;2614907;36;20038;-59
2023/01/21 00:49:14;;;;;;;52.75;21.05;;;;;;;0.20;100.00;102734.97;2615187;36;20042;-59
2023/01/21 00:51:43;;;;;;;52.55;20.02;;;;;;;0.05;100.00;102737.88;2615824;36;20041;-59
2023/01/21 00:54:11;;;;;;;57.90;20.42;;;;;;;0.08;100.00;102737.81;2616470;36;20710;-59
2023/01/21 00:56:39;;;;;;;46.13;19.83;;;;;;;0.04;100.00;102730.81;2615664;36;20038;-59
2023/01/21 00:59:10;;;;;;;53.25;19.52;;;;;;;-0.05;100.00;102737.09;2632002;36;20574;-59
2023/01/21 01:01:41;;;;;;;52.55;20.40;;;;;;;-0.09;100.00;102741.59;2614215;36;20041;-58
2023/01/21 01:04:10;;;;;;;47.63;18.88;;;;;;;-0.02;100.00;102737.91;2614816;36;20034;-59
2023/01/21 01:06:39;;;;;;;49.20;19.70;;;;;;;-0.08;100.00;102740.66;2615056;31;20074;-59
2023/01/21 01:09:08;;;;;;;47.90;20.33;;;;;;;0.01;100.00;102747.59;2614482;36;20058;-59
2023/01/21 01:11:36;;;;;;;51.42;21.13;;;;;;;-0.10;100.00;102753.06;2615192;31;20050;-60
2023/01/21 01:14:05;;;;;;;54.30;21.38;;;;;;;-0.10;100.00;102755.69;2613978;36;20030;-59
2023/01/21 01:16:33;;;;;;;51.10;20.42;;;;;;;-0.13;100.00;102760.16;2613757;36;20702;-59
2023/01/21 01:19:05;;;;;;;51.95;21.95;;;;;;;-0.10;100.00;102768.94;2615296;36;20038;-59
2023/01/21 01:21:33;;;;;;;53.72;21.40;;;;;;;-0.19;100.00;102772.56;2615496;31;20050;-60
2023/01/21 01:24:02;;;;;;;44.22;19.13;;;;;;;-0.03;100.00;102772.34;2616339;36;20459;-59
2023/01/21 01:26:30;;;;;;;46.77;20.17;;;;;;;-0.03;100.00;102783.84;2614836;36;20061;-59
2023/01/21 01:28:59;;;;;;;53.72;21.65;;;;;;;-0.12;100.00;102776.00;2615436;36;20326;-59
2023/01/21 01:31:27;;;;;;;45.83;19.50;;;;;;;-0.03;100.00;102783.84;2615313;36;20039;-60
2023/01/21 01:33:55;;;;;;;51.08;19.40;;;;;;;-0.06;100.00;102778.59;2615006;36;20029;-59
2023/01/21 01:36:27;;;;;;;54.55;20.83;;;;;;;-0.05;100.00;102790.06;2614599;36;20043;-59
2023/01/21 01:38:56;;;;;;;52.83;18.70;;;;;;;-0.15;100.00;102786.63;2614734;36;20038;-59
2023/01/21 01:41:27;;;;;;;54.22;19.95;;;;;;;-0.17;100.00;102776.97;2614790;36;20035;-59
2023/01/21 01:44:01;;;;;;;53.67;19.83;;;;;;;-0.08;100.00;102780.38;2614332;36;20034;-60
2023/01/21 01:46:31;;;;;;;51.35;19.95;;;;;;;-0.10;100.00;102782.16;2614744;36;20081;-59
2023/01/21 01:49:05;;;;;;;52.45;20.13;;;;;;;-0.21;100.00;102782.31;2614152;36;20041;-60
2023/01/21 01:51:44;;;;;;;50.60;20.65;;;;;;;-0.27;100.00;102800.03;2614592;36;20029;-59
2023/01/21 01:54:15;;;;;;;48.25;20.55;;;;;;;-0.12;100.00;102801.59;2614757;36;20559;-59
2023/01/21 01:56:49;;;;;;;53.13;22.67;;;;;;;-0.03;100.00;102805.03;2614865;36;20509;-60
2023/01/21 01:59:18;;;;;;;52.35;21.80;;;;;;;-0.16;100.00;102814.00;2614359;36;20023;-60
2023/01/21 02:01:47;;;;;;;54.20;23.00;;;;;;;-0.24;100.00;102810.56;2614754;36;20647;-59
2023/01/21 02:04:20;;;;;;;54.88;22.35;;;;;;;-0.27;100.00;102823.84;2614407;36;20034;-60
2023/01/21 02:06:54;;;;;;;46.00;19.17;;;;;;;-0.37;100.00;102825.69;2614506;31;20531;-59
2023/01/21 02:09:26;;;;;;;56.95;21.23;;;;;;;-0.32;100.00;102828.28;2613859;36;20035;-59
2023/01/21 02:11:55;;;;;;;48.85;19.77;;;;;;;-0.38;100.00;102823.97;2614881;31;20030;-59
2023/01/21 02:14:23;;;;;;;51.20;19.33;;;;;;;-0.21;100.00;102832.59;2615291;36;20038;-59
2023/01/21 02:17:07;;;;;;;50.42;20.95;;;;;;;-0.25;100.00;102845.84;2613991;36;20042;-59
2023/01/21 02:20:13;;;;;;;48.00;21.95;;;;;;;-0.35;100.00;102845.09;2614458;36;20064;-59
2023/01/21 02:22:52;;;;;;;49.75;19.33;;;;;;;-0.44;100.00;102845.19;2616421;36;20085;-59
2023/01/21 02:25:49;;;;;;;50.65;19.50;;;;;;;-0.56;100.00;102846.19;2615967;36;20045;-59
2023/01/21 02:28:45;;;;;;;44.17;18.83;;;;;;;-0.65;100.00;102843.63;2615520;36;20098;-59
2023/01/21 02:31:34;;;;;;;46.35;19.13;;;;;;;-0.67;100.00;102848.94;2614497;36;20027;-59
2023/01/21 02:34:14;;;;;;;44.85;19.30;;;;;;;-0.69;100.00;102855.13;2616082;36;20035;-59
2023/01/21 02:37:06;;;;;;;46.17;20.50;;;;;;;-0.78;100.00;102861.38;2616974;36;20038;-59
2023/01/21 02:39:52;;;;;;;52.53;22.20;;;;;;;-0.80;100.00;102868.47;2616092;36;20034;-59
2023/01/21 02:42:30;;;;;;;56.03;22.05;;;;;;;-0.71;100.00;102869.25;2614405;36;21869;-59
2023/01/21 02:45:06;;;;;;;46.97;20.40;;;;;;;-0.76;100.00;102865.78;2616074;36;20045;-59
2023/01/21 02:47:49;;;;;;;56.50;20.77;;;;;;;-0.69;100.00;102871.00;2615005;36;20038;-59
2023/01/21 02:50:26;;;;;;;47.17;18.67;;;;;;;-0.86;100.00;102869.38;2614627;36;20043;-59
2023/01/21 02:52:58;;;;;;;49.95;19.10;;;;;;;-0.85;100.00;102871.16;2614632;36;20038;-60
2023/01/21 02:55:31;;;;;;;49.72;17.77;;;;;;;-0.91;100.00;102872.06;2614860;36;20550;-59
2023/01/21 02:58:02;;;;;;;46.72;18.98;;;;;;;-0.90;100.00;102879.13;2614846;36;20121;-59
2023/01/21 03:00:38;;;;;;;55.67;18.80;;;;;;;-0.99;100.00;102875.66;2614229;36;20027;-59
2023/01/21 03:03:30;;;;;;;50.33;21.10;;;;;;;-0.94;100.00;102881.81;2614164;36;20027;-60
2023/01/21 03:06:29;;;;;;;54.83;22.02;;;;;;;-0.90;100.00;102891.44;2614337;36;20038;-59
2023/01/21 03:09:00;;;;;;;;;;;;;;;-0.93;100.00;102894.09;2614172;36;20109;-59
2023/01/21 03:11:29;;;;;;;54.00;22.83;;;;;;;-0.94;100.00;102897.66;2615103;31;19934;-60
2023/01/21 03:17:01;;;;;;;61.05;27.95;;;;;;;-0.95;100.00;102902.06;2614743;31;20073;-60
2023/01/21 03:19:34;;;;;;;61.90;23.38;;;;;;;-0.89;100.00;102906.41;2615565;36;20046;-60
2023/01/21 03:22:10;;;;;;;57.90;24.95;;;;;;;-0.95;100.00;102911.75;2615621;36;20046;-59
2023/01/21 03:24:40;;;;;;;59.00;24.60;;;;;;;-0.94;100.00;102914.38;2615170;36;20035;-59
2023/01/21 03:27:09;;;;;;;66.32;28.42;;;;;;;-1.00;100.00;102914.44;2615076;36;20034;-59
2023/01/21 03:29:41;;;;;;;60.35;25.98;;;;;;;-1.04;100.00;102922.41;2614659;36;20038;-58
2023/01/21 03:32:13;;;;;;;54.85;21.00;;;;;;;-1.09;100.00;102925.94;2614909;36;20042;-59
2023/01/21 03:34:45;;;;;;;56.05;23.10;;;;;;;-1.03;100.00;102930.31;2614020;36;20022;-58
2023/01/21 03:37:22;;;;;;;56.22;19.65;;;;;;;-0.99;100.00;102934.69;2614919;36;20030;-59
2023/01/21 03:39:59;;;;;;;60.83;21.00;;;;;;;-1.05;100.00;102929.44;2614985;36;20034;-59
2023/01/21 03:42:28;;;;;;;55.65;20.73;;;;;;;-1.10;100.00;102929.47;2615183;31;20038;-58
2023/01/21 03:44:57;;;;;;;55.42;19.63;;;;;;;-1.07;100.00;102931.22;2614839;36;20026;-58
2023/01/21 03:47:30;;;;;;;56.72;21.13;;;;;;;-1.11;100.00;102930.34;2615737;31;20073;-58
2023/01/21 03:50:01;;;;;;;62.65;21.08;;;;;;;-1.01;100.00;102919.75;2612675;36;20528;-59
2023/01/21 03:52:33;;;;;;;53.55;20.30;;;;;;;-1.06;100.00;102923.28;2614749;36;20034;-59
2023/01/21 03:55:01;;;;;;;58.85;20.00;;;;;;;-1.14;100.00;102922.44;2614680;36;20039;-59
2023/01/21 03:57:29;;;;;;;59.42;21.27;;;;;;;-1.15;100.00;102923.34;2614493;36;20030;-59
2023/01/21 03:59:58;;;;;;;61.45;21.98;;;;;;;-1.16;100.00;102918.94;2614819;36;20046;-60
2023/01/21 04:02:26;;;;;;;53.55;19.80;;;;;;;-1.16;100.00;102915.41;2615000;31;20057;-60
2023/01/21 04:04:55;;;;;;;57.07;20.73;;;;;;;-1.12;100.00;102919.78;2615193;36;20161;-58
2023/01/21 04:07:23;;;;;;;70.97;21.92;;;;;;;-1.20;100.00;102919.84;2615490;36;20027;-59
2023/01/21 04:09:54;;;;;;;63.97;21.20;;;;;;;-1.16;100.00;102928.63;2614235;36;20045;-59
2023/01/21 04:12:22;;;;;;;64.55;21.73;;;;;;;-1.04;100.00;102938.25;2615261;31;20444;-58
2023/01/21 04:14:51;;;;;;;69.28;23.05;;;;;;;-1.11;100.00;102938.28;2615111;36;20034;-59
2023/01/21 04:17:19;;;;;;;65.53;22.65;;;;;;;-1.09;100.00;102941.81;2615422;31;20034;-59
2023/01/21 04:19:47;;;;;;;60.45;21.30;;;;;;;-1.03;100.00;102937.34;2615537;36;20420;-60
2023/01/21 04:22:16;;;;;;;57.28;21.92;;;;;;;-0.96;100.00;102947.00;2615459;36;20041;-60
2023/01/21 04:24:44;;;;;;;66.50;22.63;;;;;;;-0.95;100.00;102951.41;2616351;36;20034;-60
2023/01/21 04:27:15;;;;;;;66.68;21.33;;;;;;;-1.04;100.00;102948.84;2616025;36;20031;-59
2023/01/21 04:29:43;;;;;;;60.13;20.65;;;;;;;-0.98;100.00;102951.44;2616008;36;20389;-60
2023/01/21 04:32:12;;;;;;;63.53;22.13;;;;;;;-0.99;100.00;102953.19;2616279;31;20038;-60
2023/01/21 04:34:40;;;;;;;80.85;23.15;;;;;;;-1.03;100.00;102955.84;2614471;36;20037;-60
2023/01/21 04:37:08;;;;;;;71.18;22.70;;;;;;;-0.94;100.00;102959.31;2618239;36;20038;-60
2023/01/21 04:39:36;;;;;;;89.95;23.85;;;;;;;-1.04;100.00;102959.41;2615407;36;20103;-59
2023/01/21 04:42:05;;;;;;;66.22;21.42;;;;;;;-1.06;100.00;102952.34;2615533;36;20030;-59
2023/01/21 04:44:36;;;;;;;80.38;23.38;;;;;;;-1.08;100.00;102959.41;2615388;36;20026;-59
2023/01/21 04:47:07;;;;;;;71.75;22.65;;;;;;;-1.09;100.00;102962.94;2617226;36;20037;-58
2023/01/21 04:49:35;;;;;;;82.90;21.10;;;;;;;-1.01;100.00;102962.91;2615033;36;20038;-60
2023/01/21 04:52:04;;;;;;;88.45;23.75;;;;;;;-0.99;100.00;102969.03;2615997;36;20031;-59
2023/01/21 04:54:32;;;;;;;105.68;21.80;;;;;;;-0.97;100.00;102971.66;2614970;36;20045;-59
2023/01/21 04:57:00;;;;;;;71.13;22.88;;;;;;;-0.88;100.00;102966.34;2613991;36;20038;-59
2023/01/21 04:59:29;;;;;;;75.05;22.73;;;;;;;-0.89;100.00;102975.16;2613951;36;20041;-58
2023/01/21 05:02:00;;;;;;;66.68;22.52;;;;;;;-0.81;100.00;102978.63;2614793;36;20038;-59
2023/01/21 05:04:28;;;;;;;70.60;23.02;;;;;;;-0.89;100.00;102983.94;2613154;36;20068;-59
2023/01/21 05:06:57;;;;;;;73.30;22.58;;;;;;;-0.74;100.00;102995.31;2614939;36;20351;-59
2023/01/21 05:09:26;;;;;;;82.37;22.40;;;;;;;-0.74;100.00;102996.22;2615834;36;20041;-59
2023/01/21 05:11:54;;;;;;;84.20;23.63;;;;;;;-0.87;100.00;103005.09;2613498;36;20307;-60
2023/01/21 05:14:22;;;;;;;76.68;22.52;;;;;;;-0.73;100.00;103008.53;2615311;36;20684;-60
2023/01/21 05:16:51;;;;;;;94.43;24.17;;;;;;;-0.82;100.00;102995.38;2616018;36;20035;-60
2023/01/21 05:19:22;;;;;;;78.80;24.15;;;;;;;-0.75;100.00;103004.13;2615620;36;20050;-59
2023/01/21 05:21:50;;;;;;;80.75;23.52;;;;;;;-0.75;100.00;103012.97;2614430;36;20042;-59
2023/01/21 05:24:21;;;;;;;79.28;24.25;;;;;;;-0.76;100.00;103015.63;2614120;36;20443;-59
2023/01/21 05:26:52;;;;;;;78.28;23.70;;;;;;;-0.78;100.00;103018.28;2615030;36;20226;-60
2023/01/21 05:29:21;;;;;;;77.20;24.33;;;;;;;-0.66;100.00;103011.13;2613709;36;20026;-59
2023/01/21 05:31:49;;;;;;;87.65;24.80;;;;;;;-0.65;100.00;103016.41;2614519;36;20601;-60
2023/01/21 05:34:17;;;;;;;80.25;24.30;;;;;;;-0.60;100.00;103024.34;2613523;36;20130;-60
2023/01/21 05:36:48;;;;;;;87.50;24.75;;;;;;;-0.61;100.00;103025.22;2614655;36;20029;-59
2023/01/21 05:39:16;;;;;;;77.22;24.58;;;;;;;-0.55;100.00;103023.38;2615345;36;20038;-60
2023/01/21 05:41:45;;;;;;;75.15;23.58;;;;;;;-0.61;100.00;103025.22;2613934;31;20038;-59
2023/01/21 05:44:13;;;;;;;89.43;25.88;;;;;;;-0.61;100.00;103027.84;2615387;31;20042;-58
2023/01/21 05:46:42;;;;;;;97.20;26.40;;;;;;;-0.61;100.00;103034.00;2614449;36;20030;-60
2023/01/21 05:49:10;;;;;;;83.40;25.63;;;;;;;-0.52;100.00;103034.84;2614540;36;20034;-59
2023/01/21 05:51:38;;;;;;;92.80;28.02;;;;;;;-0.48;100.00;103037.47;2615949;36;20038;-59
2023/01/21 05:54:09;;;;;;;88.38;26.52;;;;;;;-0.48;100.00;103040.09;2615917;31;20030;-59
2023/01/21 05:56:38;;;;;;;98.78;27.25;;;;;;;-0.26;100.00;103045.25;2615088;31;20034;-59
2023/01/21 05:59:06;;;;;;;85.40;25.35;;;;;;;-0.33;100.00;103048.81;2615970;36;20034;-59
2023/01/21 06:01:35;;;;;;;94.77;28.50;;;;;;;-0.40;100.00;103048.88;2613912;31;20027;-60
2023/01/21 06:04:03;;;;;;;90.22;26.77;;;;;;;-0.49;100.00;103046.28;2614206;36;20034;-59
2023/01/21 06:06:31;;;;;;;83.47;24.77;;;;;;;-0.49;100.00;103054.22;2615361;36;20027;-59
2023/01/21 06:08:59;;;;;;;98.75;25.95;;;;;;;-0.34;100.00;103055.00;2614266;36;20573;-59
2023/01/21 06:11:30;;;;;;;76.50;24.52;;;;;;;-0.52;100.00;103056.88;2615663;36;20030;-59
2023/01/21 06:13:59;;;;;;;88.45;25.63;;;;;;;-0.44;100.00;103062.13;2613537;36;20030;-59
2023/01/21 06:16:27;;;;;;;75.63;23.15;;;;;;;-0.29;100.00;103063.78;2614410;31;20057;-59
2023/01/21 06:18:55;;;;;;;82.18;23.63;;;;;;;-0.30;100.00;103075.25;2614122;36;20465;-60
2023/01/21 06:21:24;;;;;;;78.20;22.35;;;;;;;-0.48;100.00;103074.50;2615916;31;20475;-60
2023/01/21 06:23:52;;;;;;;86.97;24.63;;;;;;;-0.47;100.00;103078.91;2614012;36;20038;-59
2023/01/21 06:26:20;;;;;;;74.22;22.98;;;;;;;-0.59;100.00;103084.25;2613166;36;20049;-58
2023/01/21 06:28:51;;;;;;;78.65;23.48;;;;;;;-0.37;100.00;103085.91;2614659;36;20428;-59
2023/01/21 06:31:19;;;;;;;78.40;25.30;;;;;;;-0.48;100.00;103094.78;2614260;36;20035;-58
2023/01/21 06:33:48;;;;;;;77.68;23.52;;;;;;;-0.41;100.00;103089.44;2613749;31;20085;-59
2023/01/21 06:36:16;;;;;;;82.03;24.00;;;;;;;-0.29;100.00;103099.06;2615094;36;20038;-58
2023/01/21 06:38:44;;;;;;;82.22;23.00;;;;;;;-0.29;100.00;103099.06;2613739;36;20034;-59
2023/01/21 06:41:13;;;;;;;84.07;26.02;;;;;;;-0.33;100.00;103107.91;2614825;36;20539;-58
2023/01/21 06:43:41;;;;;;;82.65;23.05;;;;;;;-0.32;100.00;103108.78;2613964;31;20038;-58
2023/01/21 06:46:12;;;;;;;79.65;23.15;;;;;;;-0.24;100.00;103106.97;2614260;36;20033;-58
2023/01/21 06:48:42;;;;;;;79.85;25.02;;;;;;;-0.21;100.00;103110.50;2615085;31;20093;-58
2023/01/21 06:51:10;;;;;;;;;;;;;;;-0.49;100.00;103112.41;2615336;36;20137;-58
2023/01/21 06:53:38;;;;;;;85.68;25.33;;;;;;;-0.37;100.00;103117.66;2614275;31;19946;-58
2023/01/21 06:56:09;;;;;;;71.15;23.80;;;;;;;-0.26;100.00;103119.34;2615632;31;20038;-58
2023/01/21 06:58:37;;;;;;;80.22;24.10;;;;;;;-0.06;100.00;103108.59;2614709;36;20039;-59
2023/01/21 07:01:06;;;;;;;76.95;22.90;;;;;;;-0.23;100.00;103108.72;2615626;31;20034;-59
2023/01/21 07:03:37;;;;;;;77.75;23.70;;;;;;;-0.20;100.00;103109.56;2614195;36;20038;-60
2023/01/21 07:06:06;;;;;;;82.68;27.98;;;;;;;-0.08;100.00;103116.53;2614805;36;20566;-59
2023/01/21 07:08:34;;;;;;;77.90;24.10;;;;;;;-0.20;100.00;103103.41;2615109;36;20038;-60
2023/01/21 07:11:03;;;;;;;71.88;23.55;;;;;;;-0.23;100.00;103121.97;2614767;36;20046;-60
2023/01/21 07:13:31;;;;;;;74.18;24.67;;;;;;;-0.16;100.00;103118.38;2614798;36;20030;-58
2023/01/21 07:16:01;;;;;;;75.18;23.40;;;;;;;-0.02;100.00;103123.56;2615206;36;20035;-59
2023/01/21 07:18:30;;;;;;;72.80;21.88;;;;;;;-0.02;100.00;103132.38;2614175;31;20038;-59
2023/01/21 07:21:00;;;;;;;66.97;23.52;;;;;;;-0.03;100.00;103135.03;2614690;36;20042;-59
2023/01/21 07:23:29;;;;;;;76.40;23.20;;;;;;;-0.14;100.00;103139.56;2615112;36;20611;-59
2023/01/21 07:25:57;;;;;;;83.65;24.67;;;;;;;-0.13;100.00;103141.28;2615335;31;20038;-59
2023/01/21 07:28:26;;;;;;;77.82;25.80;;;;;;;-0.17;100.00;103148.38;2614686;31;20105;-60
2023/01/21 07:30:54;;;;;;;78.07;25.02;;;;;;;-0.11;100.00;103152.75;2614419;36;20042;-60
2023/01/21 07:33:22;;;;;;;80.63;24.33;;;;;;;-0.14;100.00;103160.72;2614836;36;20423;-60
2023/01/21 07:35:51;;;;;;;69.97;21.92;;;;;;;-0.06;100.00;103159.78;2614702;36;20439;-59
2023/01/21 07:38:22;;;;;;;72.97;23.55;;;;;;;-0.04;100.00;103168.59;2615263;36;20069;-59
2023/01/21 07:40:50;;;;;;;72.60;23.67;;;;;;;-0.11;100.00;103176.59;2615044;36;20036;-59
2023/01/21 07:43:19;;;;;;;70.65;22.90;;;;;;;0.07;100.00;103173.78;2614096;36;20038;-58
2023/01/21 07:45:47;;;;;;;73.55;24.08;;;;;;;-0.04;100.00;103173.00;2614659;36;20057;-59
2023/01/21 07:48:16;;;;;;;65.93;22.43;;;;;;;0.03;100.00;103181.78;2613293;36;20043;-59
2023/01/21 07:50:44;;;;;;;74.60;23.13;;;;;;;0.00;100.00;103188.00;2615140;36;20570;-59
2023/01/21 07:53:14;;;;;;;68.50;21.65;;;;;;;0.02;100.00;103185.34;2614386;36;20038;-59
2023/01/21 07:55:44;;;;;;;;;;;;;;;0.04;100.00;103192.34;2615489;36;20702;-59
2023/01/21 07:58:13;;;;;;;65.57;22.38;;;;;;;0.16;100.00;103207.28;2615609;36;19946;-60
2023/01/21 08:00:41;;;;;;;77.07;27.83;;;;;;;0.20;100.00;103203.72;2614075;36;20401;-60
2023/01/21 08:03:09;;;;;;;78.38;25.85;;;;;;;0.24;100.00;103210.75;2613033;36;20065;-60
2023/01/21 08:05:37;;;;;;;74.25;22.52;;;;;;;0.22;100.00;103209.91;2615376;31;20049;-60
2023/01/21 08:08:06;;;;;;;59.15;20.25;;;;;;;0.36;100.00;103214.22;2615602;36;20026;-59
2023/01/21 08:10:34;;;;;;;70.22;21.95;;;;;;;0.44;100.00;103221.22;2615429;36;20046;-59
2023/01/21 08:13:06;;;;;;;83.43;27.65;;;;;;;0.23;100.00;103230.19;2617743;31;20033;-59
2023/01/21 08:15:35;;;;;;;69.20;24.02;;;;;;;0.37;100.00;103226.53;2615880;36;20082;-58
2023/01/21 08:18:03;;;;;;;76.35;21.70;;;;;;;0.52;100.00;103229.09;2616598;36;20420;-61
2023/01/21 08:20:31;;;;;;;69.30;22.10;;;;;;;0.54;100.00;103229.94;2615998;31;20053;-59
2023/01/21 08:23:01;;;;;;;71.07;22.27;;;;;;;0.77;100.00;103235.06;2616850;36;20045;-59
2023/01/21 08:25:30;;;;;;;71.80;23.38;;;;;;;0.69;100.00;103242.19;2616381;36;20038;-59
2023/01/21 08:28:00;;;;;;;75.03;23.80;;;;;;;0.45;100.00;103243.28;2614973;36;20033;-59
2023/01/21 08:30:31;;;;;;;67.72;22.00;;;;;;;0.55;100.00;103242.31;2615133;36;20031;-59
2023/01/21 08:32:59;;;;;;;71.55;22.75;;;;;;;0.39;100.00;103240.69;2614621;36;20034;-60
2023/01/21 08:35:28;;;;;;;76.22;23.50;;;;;;;0.37;100.00;103243.34;2616716;36;20422;-60
2023/01/21 08:37:57;;;;;;;68.20;20.13;;;;;;;0.42;100.00;103245.94;2614962;36;20138;-59
2023/01/21 08:40:26;;;;;;;;;;;;;;;0.79;100.00;103253.59;2614112;36;20057;-59
2023/01/21 08:42:54;;;;;;;62.80;19.95;;;;;;;0.71;100.00;103253.66;2613171;36;19961;-60
2023/01/21 08:46:08;;;;;;;64.00;20.98;;;;;;;0.56;100.00;103254.69;2613753;36;20069;-59
2023/01/21 08:48:39;;;;;;;73.15;21.20;;;;;;;0.54;100.00;103253.78;2613573;36;20039;-59
2023/01/21 08:51:22;;;;;;;70.75;22.27;;;;;;;0.51;100.00;103251.16;2612693;36;20042;-60
2023/01/21 08:53:51;;;;;;;72.10;20.38;;;;;;;0.42;100.00;103268.03;2614076;36;20039;-59
2023/01/21 08:56:20;;;;;;;66.65;20.60;;;;;;;0.66;100.00;103256.38;2614628;36;20087;-59
2023/01/21 08:58:48;;;;;;;78.28;20.38;;;;;;;0.84;100.00;103254.41;2614273;36;20038;-59
2023/01/21 09:01:19;;;;;;;85.30;23.83;;;;;;;0.93;100.00;103249.06;2616293;36;20037;-59
2023/01/21 09:03:47;;;;;;;82.57;22.88;;;;;;;1.01;100.00;103247.19;2615866;36;20034;-60
2023/01/21 09:06:16;;;;;;;87.57;24.73;;;;;;;1.09;100.00;103248.88;2616570;36;20035;-59
2023/01/21 09:08:49;;;;;;;77.63;22.20;;;;;;;1.18;100.00;103248.81;2616957;54;20068;-58
2023/01/21 09:11:18;;;;;;;70.32;20.92;;;;;;;0.95;100.00;103262.28;2616081;36;20038;-59
2023/01/21 09:13:46;;;;;;;75.72;21.50;;;;;;;1.01;100.00;103263.09;2615331;31;20042;-59
2023/01/21 09:16:19;;;;;;;68.20;20.92;;;;;;;1.08;100.00;103257.75;2616031;31;20030;-57
2023/01/21 09:18:48;;;;;;;75.38;22.92;;;;;;;1.17;100.00;103269.13;2614708;36;20031;-59
2023/01/21 09:21:17;;;;;;;81.30;21.65;;;;;;;0.97;100.00;103264.03;2615509;36;20110;-59
2023/01/21 09:23:45;;;;;;;69.68;21.15;;;;;;;0.97;100.00;103272.00;2614917;36;20035;-60
2023/01/21 09:26:17;;;;;;;74.07;23.17;;;;;;;0.94;100.00;103271.13;2614069;36;20061;-60
2023/01/21 09:28:48;;;;;;;70.72;20.73;;;;;;;1.18;100.00;103267.38;2615272;36;20034;-58
2023/01/21 09:31:20;;;;;;;63.63;20.20;;;;;;;1.18;100.00;103270.03;2615406;36;20034;-59
2023/01/21 09:33:51;;;;;;;64.85;21.45;;;;;;;1.19;100.00;103274.41;2614683;36;20434;-61
2023/01/21 09:36:22;;;;;;;70.20;21.88;;;;;;;1.10;100.00;103271.88;2615661;31;20125;-59
2023/01/21 09:38:52;;;;;;;75.20;20.60;;;;;;;1.07;100.00;103283.38;2615925;36;20042;-59
2023/01/21 09:41:27;;;;;;;66.20;19.05;;;;;;;1.21;100.00;103292.09;2614900;36;20045;-62
2023/01/21 09:44:08;;;;;;;63.45;20.48;;;;;;;1.23;100.00;103290.28;2615538;36;20050;-58
2023/01/21 09:46:44;;;;;;;61.03;19.88;;;;;;;1.27;100.00;103296.47;2615700;36;20050;-59
2023/01/21 09:49:19;;;;;;;74.85;20.67;;;;;;;1.32;100.00;103293.75;2615373;36;20026;-60
2023/01/21 09:51:52;;;;;;;67.03;19.33;;;;;;;1.36;100.00;103299.00;2616102;31;20022;-59
2023/01/21 09:54:27;;;;;;;63.90;18.65;;;;;;;1.34;100.00;103291.94;2616061;31;20891;-60
2023/01/21 09:57:14;;;;;;;64.15;19.15;;;;;;;1.55;100.00;103286.41;2615866;36;20052;-59
2023/01/21 09:59:52;;;;;;;55.15;19.27;;;;;;;1.44;100.00;103282.13;2615481;36;20578;-57
2023/01/21 10:02:32;;;;;;;66.05;18.65;;;;;;;1.60;100.00;103286.34;2616378;31;20114;-58
2023/01/21 10:05:16;;;;;;;59.88;18.60;;;;;;;1.74;100.00;103286.19;2614792;36;20038;-58
2023/01/21 10:07:47;;;;;;;65.32;20.63;;;;;;;1.96;100.00;103296.53;2615564;36;20034;-58
2023/01/21 10:10:22;;;;;;;59.38;18.50;;;;;;;1.81;100.00;103287.00;2615823;36;20042;-58
2023/01/21 10:13:07;;;;;;;56.47;19.17;;;;;;;1.78;100.00;103281.72;2615558;36;20041;-58
2023/01/21 10:16:01;;;;;;;78.63;19.95;;;;;;;1.98;100.00;103278.81;2615839;36;20157;-59
2023/01/21 10:18:36;;;;;;;66.28;20.08;;;;;;;1.85;100.00;103288.72;2615723;31;20034;-59
2023/01/21 10:21:10;;;;;;;63.00;20.80;;;;;;;1.84;100.00;103292.25;2615699;36;20030;-58
2023/01/21 10:23:42;;;;;;;65.20;18.55;;;;;;;1.87;100.00;103306.38;2616114;36;20428;-58
2023/01/21 10:26:15;;;;;;;59.13;20.17;;;;;;;2.12;100.00;103305.19;2616077;36;20034;-58
2023/01/21 10:28:49;;;;;;;61.15;19.52;;;;;;;2.28;100.00;103315.59;2616151;36;20035;-59
2023/01/21 10:31:23;;;;;;;56.95;19.02;;;;;;;2.32;100.00;103312.88;2615786;36;20075;-58
2023/01/21 10:33:54;;;;;;;61.97;20.15;;;;;;;2.27;100.00;103320.91;2614563;36;20063;-60
2023/01/21 10:36:45;;;;;;;50.50;17.83;;;;;;;2.06;100.00;103308.78;2615190;31;20045;-59
2023/01/21 10:39:24;;;;;;;54.10;18.38;;;;;;;2.06;100.00;103314.09;2615040;36;20045;-60
2023/01/21 10:42:06;;;;;;;53.80;17.40;;;;;;;2.36;100.00;103317.25;2615356;36;20046;-59
2023/01/21 10:44:45;;;;;;;53.83;17.90;;;;;;;2.24;100.00;103310.34;2615515;31;20026;-58
2023/01/21 10:47:25;;;;;;;54.90;19.17;;;;;;;2.30;100.00;103315.56;2616349;36;20420;-60
2023/01/21 10:50:04;;;;;;;49.35;19.92;;;;;;;2.35;100.00;103313.69;2614763;36;20417;-58
2023/01/21 10:52:39;;;;;;;56.83;20.83;;;;;;;2.49;100.00;103317.94;2615097;36;20035;-60
2023/01/21 10:55:22;;;;;;;52.97;16.75;;;;;;;2.46;100.00;103318.88;2615409;36;20303;-59
2023/01/21 10:57:58;;;;;;;53.92;19.73;;;;;;;2.42;100.00;103326.00;2616080;36;20041;-59
2023/01/21 11:00:31;;;;;;;53.65;18.73;;;;;;;2.33;100.00;103317.31;2615476;36;20034;-58
2023/01/21 11:03:04;;;;;;;48.13;18.05;;;;;;;2.40;100.00;103317.19;2615983;31;20520;-58
2023/01/21 11:05:35;;;;;;;54.30;17.55;;;;;;;2.32;100.00;103316.41;2615090;36;20041;-60
2023/01/21 11:08:04;;;;;;;58.33;17.70;;;;;;;2.13;100.00;103322.88;2615821;36;20027;-58
2023/01/21 11:10:34;;;;;;;50.05;18.98;;;;;;;2.32;100.00;103327.03;2615776;36;20042;-59
2023/01/21 11:13:03;;;;;;;70.00;29.52;;;;;;;2.55;100.00;103317.88;2615976;31;20558;-58
2023/01/21 11:15:34;;;;;;;;;;;;;;;2.41;100.00;103321.56;2615340;36;20041;-57
2023/01/21 11:18:22;;;;;;;56.65;20.25;;;;;;;2.20;100.00;103316.59;2615901;31;19938;-59
2023/01/21 11:20:58;;;;;;;58.95;19.17;;;;;;;2.34;100.00;103325.25;2615220;31;20038;-60
2023/01/21 11:23:29;;;;;;;51.65;17.83;;;;;;;2.32;100.00;103316.41;2615171;36;20150;-59
2023/01/21 11:26:06;;;;;;;51.70;17.13;;;;;;;2.32;100.00;103319.06;2614672;36;20038;-59
2023/01/21 11:28:34;;;;;;;51.13;17.13;;;;;;;2.42;100.00;103327.78;2615275;31;20443;-60
2023/01/21 11:31:14;;;;;;;60.92;18.73;;;;;;;2.65;100.00;103322.13;2614889;36;20061;-59